sensor_id;sensor_type;location;lat;lon;timestamp;P1;durP1;ratioP1;P2;durP2;ratioP2
34571;SDS011;20808;48.974;8.452;2022-11-12T00:00:54;16.33;;;10.37;;
34571;SDS011;20808;48.974;8.452;2022-11-12T00:03:23;14.43;;;10.10;;
34571;SDS011;20808;48.974;8.452;2022-11-12T00:05:50;14.27;;;10.20;;
34571;SDS011;20808;48.974;8.452;2022-11-12T00:08:17;15.90;;;10.47;;
34571;SDS011;20808;48.974;8.452;2022-11-12T00:10:44;13.60;;;9.73;;
34571;SDS011;20808;48.974;8.452;2022-11-12T00:13:11;18.77;;;11.00;;
34571;SDS011;20808;48.974;8.452;2022-11-12T00:15:38;14.43;;;10.10;;
34571;SDS011;20808;48.974;8.452;2022-11-12T00:18:06;15.40;;;10.20;;
34571;SDS011;20808;48.974;8.452;2022-11-12T00:20:33;11.77;;;8.90;;
34571;SDS011;20808;48.974;8.452;2022-11-12T00:23:00;14.83;;;10.23;;
34571;SDS011;20808;48.974;8.452;2022-11-12T00:25:27;15.17;;;10.80;;
34571;SDS011;20808;48.974;8.452;2022-11-12T00:27:59;13.63;;;10.10;;
34571;SDS011;20808;48.974;8.452;2022-11-12T00:30:27;13.40;;;9.50;;
34571;SDS011;20808;48.974;8.452;2022-11-12T00:32:54;14.83;;;11.03;;
34571;SDS011;20808;48.974;8.452;2022-11-12T00:35:22;16.03;;;10.00;;
34571;SDS011;20808;48.974;8.452;2022-11-12T00:37:52;11.43;;;9.40;;
34571;SDS011;20808;48.974;8.452;2022-11-12T00:40:19;13.50;;;10.20;;
34571;SDS011;20808;48.974;8.452;2022-11-12T00:42:46;13.67;;;9.20;;
34571;SDS011;20808;48.974;8.452;2022-11-12T00:45:12;12.00;;;9.77;;
34571;SDS011;20808;48.974;8.452;2022-11-12T00:47:39;13.97;;;9.20;;
34571;SDS011;20808;48.974;8.452;2022-11-12T00:50:06;16.43;;;10.53;;
34571;SDS011;20808;48.974;8.452;2022-11-12T00:52:35;15.60;;;11.10;;
34571;SDS011;20808;48.974;8.452;2022-11-12T00:55:02;12.93;;;10.47;;
34571;SDS011;20808;48.974;8.452;2022-11-12T00:57:29;15.30;;;10.70;;
34571;SDS011;20808;48.974;8.452;2022-11-12T00:59:56;17.43;;;11.80;;
34571;SDS011;20808;48.974;8.452;2022-11-12T01:02:23;17.80;;;11.17;;
34571;SDS011;20808;48.974;8.452;2022-11-12T01:04:50;17.50;;;11.50;;
34571;SDS011;20808;48.974;8.452;2022-11-12T01:07:16;23.33;;;12.53;;
34571;SDS011;20808;48.974;8.452;2022-11-12T01:09:45;22.00;;;12.17;;
34571;SDS011;20808;48.974;8.452;2022-11-12T01:12:11;19.23;;;10.87;;
34571;SDS011;20808;48.974;8.452;2022-11-12T01:14:38;21.17;;;12.47;;
34571;SDS011;20808;48.974;8.452;2022-11-12T01:17:05;20.83;;;11.97;;
34571;SDS011;20808;48.974;8.452;2022-11-12T01:19:32;17.70;;;11.07;;
34571;SDS011;20808;48.974;8.452;2022-11-12T01:21:58;19.30;;;10.97;;
34571;SDS011;20808;48.974;8.452;2022-11-12T01:24:25;18.33;;;12.07;;
34571;SDS011;20808;48.974;8.452;2022-11-12T01:26:53;18.13;;;11.53;;
34571;SDS011;20808;48.974;8.452;2022-11-12T01:29:20;22.97;;;11.87;;
34571;SDS011;20808;48.974;8.452;2022-11-12T01:31:47;16.30;;;10.27;;
34571;SDS011;20808;48.974;8.452;2022-11-12T01:34:14;18.90;;;11.13;;
34571;SDS011;20808;48.974;8.452;2022-11-12T01:36:41;20.43;;;12.37;;
34571;SDS011;20808;48.974;8.452;2022-11-12T01:39:08;25.83;;;11.00;;
34571;SDS011;20808;48.974;8.452;2022-11-12T01:41:36;23.27;;;11.20;;
34571;SDS011;20808;48.974;8.452;2022-11-12T01:44:06;20.60;;;12.17;;
34571;SDS011;20808;48.974;8.452;2022-11-12T01:46:40;16.93;;;10.93;;
34571;SDS011;20808;48.974;8.452;2022-11-12T01:49:17;16.83;;;10.80;;
34571;SDS011;20808;48.974;8.452;2022-11-12T01:51:48;21.30;;;12.00;;
34571;SDS011;20808;48.974;8.452;2022-11-12T01:54:17;22.77;;;10.97;;
34571;SDS011;20808;48.974;8.452;2022-11-12T01:56:46;20.30;;;11.80;;
34571;SDS011;20808;48.974;8.452;2022-11-12T01:59:17;19.40;;;10.83;;
34571;SDS011;20808;48.974;8.452;2022-11-12T02:01:47;14.03;;;10.30;;
34571;SDS011;20808;48.974;8.452;2022-11-12T02:04:14;25.27;;;11.73;;
34571;SDS011;20808;48.974;8.452;2022-11-12T02:06:42;17.63;;;11.10;;
34571;SDS011;20808;48.974;8.452;2022-11-12T02:09:11;25.57;;;12.27;;
34571;SDS011;20808;48.974;8.452;2022-11-12T02:11:38;18.87;;;10.37;;
34571;SDS011;20808;48.974;8.452;2022-11-12T02:14:07;16.30;;;9.40;;
34571;SDS011;20808;48.974;8.452;2022-11-12T02:16:36;17.70;;;9.43;;
34571;SDS011;20808;48.974;8.452;2022-11-12T02:19:05;18.23;;;8.60;;
34571;SDS011;20808;48.974;8.452;2022-11-12T02:21:35;21.90;;;8.73;;
34571;SDS011;20808;48.974;8.452;2022-11-12T02:24:03;16.03;;;8.50;;
34571;SDS011;20808;48.974;8.452;2022-11-12T02:26:32;14.70;;;8.60;;
34571;SDS011;20808;48.974;8.452;2022-11-12T02:29:02;25.67;;;9.27;;
34571;SDS011;20808;48.974;8.452;2022-11-12T02:31:29;13.90;;;7.83;;
34571;SDS011;20808;48.974;8.452;2022-11-12T02:33:59;15.40;;;8.27;;
34571;SDS011;20808;48.974;8.452;2022-11-12T02:36:27;27.03;;;9.50;;
34571;SDS011;20808;48.974;8.452;2022-11-12T02:38:55;28.63;;;8.57;;
34571;SDS011;20808;48.974;8.452;2022-11-12T02:41:22;11.27;;;7.47;;
34571;SDS011;20808;48.974;8.452;2022-11-12T02:43:49;14.70;;;8.30;;
34571;SDS011;20808;48.974;8.452;2022-11-12T02:46:16;18.07;;;8.10;;
34571;SDS011;20808;48.974;8.452;2022-11-12T02:48:43;21.20;;;8.17;;
34571;SDS011;20808;48.974;8.452;2022-11-12T02:51:10;15.00;;;8.50;;
34571;SDS011;20808;48.974;8.452;2022-11-12T02:53:38;28.50;;;8.97;;
34571;SDS011;20808;48.974;8.452;2022-11-12T02:56:06;20.83;;;8.20;;
34571;SDS011;20808;48.974;8.452;2022-11-12T02:58:33;30.00;;;7.93;;
34571;SDS011;20808;48.974;8.452;2022-11-12T03:01:00;20.03;;;8.60;;
34571;SDS011;20808;48.974;8.452;2022-11-12T03:03:27;14.83;;;8.50;;
34571;SDS011;20808;48.974;8.452;2022-11-12T03:05:54;15.07;;;8.43;;
34571;SDS011;20808;48.974;8.452;2022-11-12T03:08:22;26.23;;;8.57;;
34571;SDS011;20808;48.974;8.452;2022-11-12T03:10:49;13.30;;;8.40;;
34571;SDS011;20808;48.974;8.452;2022-11-12T03:13:17;14.63;;;8.27;;
34571;SDS011;20808;48.974;8.452;2022-11-12T03:15:44;21.67;;;9.83;;
34571;SDS011;20808;48.974;8.452;2022-11-12T03:18:11;12.97;;;7.97;;
34571;SDS011;20808;48.974;8.452;2022-11-12T03:20:40;13.07;;;8.00;;
34571;SDS011;20808;48.974;8.452;2022-11-12T03:23:07;14.00;;;6.90;;
34571;SDS011;20808;48.974;8.452;2022-11-12T03:25:36;15.17;;;7.33;;
34571;SDS011;20808;48.974;8.452;2022-11-12T03:28:04;16.23;;;7.30;;
34571;SDS011;20808;48.974;8.452;2022-11-12T03:30:35;15.67;;;7.63;;
34571;SDS011;20808;48.974;8.452;2022-11-12T03:33:05;12.33;;;7.50;;
34571;SDS011;20808;48.974;8.452;2022-11-12T03:35:33;11.63;;;7.73;;
34571;SDS011;20808;48.974;8.452;2022-11-12T03:38:01;14.43;;;7.43;;
34571;SDS011;20808;48.974;8.452;2022-11-12T03:40:29;13.13;;;7.17;;
34571;SDS011;20808;48.974;8.452;2022-11-12T03:42:58;11.73;;;7.37;;
34571;SDS011;20808;48.974;8.452;2022-11-12T03:45:25;12.63;;;8.20;;
34571;SDS011;20808;48.974;8.452;2022-11-12T03:47:55;16.03;;;7.83;;
34571;SDS011;20808;48.974;8.452;2022-11-12T03:50:23;13.90;;;7.50;;
34571;SDS011;20808;48.974;8.452;2022-11-12T03:52:52;16.73;;;6.87;;
34571;SDS011;20808;48.974;8.452;2022-11-12T03:55:20;10.77;;;6.97;;
34571;SDS011;20808;48.974;8.452;2022-11-12T03:57:49;11.60;;;7.70;;
34571;SDS011;20808;48.974;8.452;2022-11-12T04:00:16;11.13;;;6.83;;
34571;SDS011;20808;48.974;8.452;2022-11-12T04:02:44;16.40;;;7.60;;
34571;SDS011;20808;48.974;8.452;2022-11-12T04:05:12;10.80;;;7.37;;
34571;SDS011;20808;48.974;8.452;2022-11-12T04:07:57;9.30;;;6.20;;
34571;SDS011;20808;48.974;8.452;2022-11-12T04:10:42;9.07;;;6.50;;
34571;SDS011;20808;48.974;8.452;2022-11-12T04:13:09;10.27;;;6.70;;
34571;SDS011;20808;48.974;8.452;2022-11-12T04:15:55;10.30;;;6.30;;
34571;SDS011;20808;48.974;8.452;2022-11-12T04:18:41;16.83;;;8.50;;
34571;SDS011;20808;48.974;8.452;2022-11-12T04:21:29;8.37;;;6.13;;
34571;SDS011;20808;48.974;8.452;2022-11-12T04:24:14;9.13;;;6.47;;
34571;SDS011;20808;48.974;8.452;2022-11-12T04:27:00;8.90;;;6.50;;
34571;SDS011;20808;48.974;8.452;2022-11-12T04:29:27;8.60;;;6.10;;
34571;SDS011;20808;48.974;8.452;2022-11-12T04:32:12;9.97;;;6.70;;
34571;SDS011;20808;48.974;8.452;2022-11-12T04:34:38;8.83;;;6.40;;
34571;SDS011;20808;48.974;8.452;2022-11-12T04:37:07;11.23;;;6.07;;
34571;SDS011;20808;48.974;8.452;2022-11-12T04:39:34;9.37;;;6.17;;
34571;SDS011;20808;48.974;8.452;2022-11-12T04:42:00;10.33;;;6.37;;
34571;SDS011;20808;48.974;8.452;2022-11-12T04:44:44;11.33;;;5.60;;
34571;SDS011;20808;48.974;8.452;2022-11-12T04:47:32;10.47;;;6.47;;
34571;SDS011;20808;48.974;8.452;2022-11-12T04:50:00;10.97;;;6.17;;
34571;SDS011;20808;48.974;8.452;2022-11-12T04:52:29;10.23;;;6.80;;
34571;SDS011;20808;48.974;8.452;2022-11-12T04:54:56;11.50;;;7.93;;
34571;SDS011;20808;48.974;8.452;2022-11-12T04:57:24;10.23;;;7.30;;
34571;SDS011;20808;48.974;8.452;2022-11-12T04:59:51;9.10;;;6.50;;
34571;SDS011;20808;48.974;8.452;2022-11-12T05:02:19;10.87;;;6.10;;
34571;SDS011;20808;48.974;8.452;2022-11-12T05:04:46;8.53;;;6.00;;
34571;SDS011;20808;48.974;8.452;2022-11-12T05:07:13;10.27;;;7.27;;
34571;SDS011;20808;48.974;8.452;2022-11-12T05:09:45;10.10;;;6.97;;
34571;SDS011;20808;48.974;8.452;2022-11-12T05:12:11;11.93;;;8.50;;
34571;SDS011;20808;48.974;8.452;2022-11-12T05:14:41;9.57;;;6.70;;
34571;SDS011;20808;48.974;8.452;2022-11-12T05:17:08;9.73;;;6.53;;
34571;SDS011;20808;48.974;8.452;2022-11-12T05:19:35;8.93;;;6.27;;
34571;SDS011;20808;48.974;8.452;2022-11-12T05:22:01;7.20;;;6.00;;
34571;SDS011;20808;48.974;8.452;2022-11-12T05:24:30;9.07;;;6.03;;
34571;SDS011;20808;48.974;8.452;2022-11-12T05:26:59;7.47;;;5.20;;
34571;SDS011;20808;48.974;8.452;2022-11-12T05:29:26;6.80;;;5.40;;
34571;SDS011;20808;48.974;8.452;2022-11-12T05:31:54;6.63;;;5.40;;
34571;SDS011;20808;48.974;8.452;2022-11-12T05:34:21;7.60;;;6.20;;
34571;SDS011;20808;48.974;8.452;2022-11-12T05:36:48;7.13;;;5.67;;
34571;SDS011;20808;48.974;8.452;2022-11-12T05:39:15;8.07;;;5.90;;
34571;SDS011;20808;48.974;8.452;2022-11-12T05:41:42;7.80;;;5.43;;
34571;SDS011;20808;48.974;8.452;2022-11-12T05:44:10;7.33;;;5.33;;
34571;SDS011;20808;48.974;8.452;2022-11-12T05:46:37;7.90;;;6.03;;
34571;SDS011;20808;48.974;8.452;2022-11-12T05:49:04;7.03;;;4.90;;
34571;SDS011;20808;48.974;8.452;2022-11-12T05:51:34;8.10;;;5.33;;
34571;SDS011;20808;48.974;8.452;2022-11-12T05:54:02;6.03;;;4.80;;
34571;SDS011;20808;48.974;8.452;2022-11-12T05:56:30;5.50;;;4.70;;
34571;SDS011;20808;48.974;8.452;2022-11-12T05:58:57;6.80;;;5.50;;
34571;SDS011;20808;48.974;8.452;2022-11-12T06:01:25;7.70;;;5.80;;
34571;SDS011;20808;48.974;8.452;2022-11-12T06:03:52;6.60;;;5.43;;
34571;SDS011;20808;48.974;8.452;2022-11-12T06:06:19;7.47;;;6.13;;
34571;SDS011;20808;48.974;8.452;2022-11-12T06:08:46;8.07;;;6.30;;
34571;SDS011;20808;48.974;8.452;2022-11-12T06:11:13;7.30;;;5.10;;
34571;SDS011;20808;48.974;8.452;2022-11-12T06:13:39;8.43;;;6.10;;
34571;SDS011;20808;48.974;8.452;2022-11-12T06:16:08;10.60;;;6.73;;
34571;SDS011;20808;48.974;8.452;2022-11-12T06:18:37;8.50;;;6.20;;
34571;SDS011;20808;48.974;8.452;2022-11-12T06:21:04;9.40;;;6.00;;
34571;SDS011;20808;48.974;8.452;2022-11-12T06:23:48;8.33;;;6.33;;
34571;SDS011;20808;48.974;8.452;2022-11-12T06:26:17;9.17;;;6.30;;
34571;SDS011;20808;48.974;8.452;2022-11-12T06:28:46;7.10;;;5.40;;
34571;SDS011;20808;48.974;8.452;2022-11-12T06:31:13;7.50;;;6.00;;
34571;SDS011;20808;48.974;8.452;2022-11-12T06:33:42;8.40;;;6.07;;
34571;SDS011;20808;48.974;8.452;2022-11-12T06:36:10;8.17;;;6.30;;
34571;SDS011;20808;48.974;8.452;2022-11-12T06:38:38;8.53;;;6.53;;
34571;SDS011;20808;48.974;8.452;2022-11-12T06:41:06;8.27;;;5.87;;
34571;SDS011;20808;48.974;8.452;2022-11-12T06:43:34;8.67;;;6.10;;
34571;SDS011;20808;48.974;8.452;2022-11-12T06:46:02;9.73;;;6.90;;
34571;SDS011;20808;48.974;8.452;2022-11-12T06:48:30;10.93;;;6.80;;
34571;SDS011;20808;48.974;8.452;2022-11-12T06:51:03;8.93;;;6.60;;
34571;SDS011;20808;48.974;8.452;2022-11-12T06:53:31;16.53;;;5.93;;
34571;SDS011;20808;48.974;8.452;2022-11-12T06:56:00;14.17;;;7.20;;
34571;SDS011;20808;48.974;8.452;2022-11-12T06:58:27;8.17;;;6.23;;
34571;SDS011;20808;48.974;8.452;2022-11-12T07:00:54;7.57;;;5.60;;
34571;SDS011;20808;48.974;8.452;2022-11-12T07:03:21;16.23;;;6.07;;
34571;SDS011;20808;48.974;8.452;2022-11-12T07:05:48;8.53;;;5.60;;
34571;SDS011;20808;48.974;8.452;2022-11-12T07:08:16;7.00;;;5.53;;
34571;SDS011;20808;48.974;8.452;2022-11-12T07:10:43;7.23;;;5.50;;
34571;SDS011;20808;48.974;8.452;2022-11-12T07:13:10;11.50;;;5.57;;
34571;SDS011;20808;48.974;8.452;2022-11-12T07:15:37;9.53;;;5.20;;
34571;SDS011;20808;48.974;8.452;2022-11-12T07:18:04;7.07;;;5.40;;
34571;SDS011;20808;48.974;8.452;2022-11-12T07:20:32;8.30;;;6.00;;
34571;SDS011;20808;48.974;8.452;2022-11-12T07:22:59;8.40;;;5.50;;
34571;SDS011;20808;48.974;8.452;2022-11-12T07:25:28;7.37;;;4.97;;
34571;SDS011;20808;48.974;8.452;2022-11-12T07:27:54;6.87;;;5.23;;
34571;SDS011;20808;48.974;8.452;2022-11-12T07:30:21;10.17;;;6.30;;
34571;SDS011;20808;48.974;8.452;2022-11-12T07:32:48;8.60;;;6.03;;
34571;SDS011;20808;48.974;8.452;2022-11-12T07:35:15;8.17;;;5.80;;
34571;SDS011;20808;48.974;8.452;2022-11-12T07:37:42;6.40;;;5.57;;
34571;SDS011;20808;48.974;8.452;2022-11-12T07:40:09;9.10;;;6.23;;
34571;SDS011;20808;48.974;8.452;2022-11-12T07:42:38;10.30;;;5.60;;
34571;SDS011;20808;48.974;8.452;2022-11-12T07:45:05;6.70;;;5.50;;
34571;SDS011;20808;48.974;8.452;2022-11-12T07:47:32;7.00;;;5.43;;
34571;SDS011;20808;48.974;8.452;2022-11-12T07:49:59;7.47;;;5.40;;
34571;SDS011;20808;48.974;8.452;2022-11-12T07:52:26;9.47;;;6.43;;
34571;SDS011;20808;48.974;8.452;2022-11-12T07:54:53;7.97;;;6.50;;
34571;SDS011;20808;48.974;8.452;2022-11-12T07:57:41;9.37;;;6.23;;
34571;SDS011;20808;48.974;8.452;2022-11-12T08:00:08;8.90;;;6.10;;
34571;SDS011;20808;48.974;8.452;2022-11-12T08:02:36;6.93;;;5.50;;
34571;SDS011;20808;48.974;8.452;2022-11-12T08:05:03;6.40;;;4.97;;
34571;SDS011;20808;48.974;8.452;2022-11-12T08:07:30;7.23;;;5.60;;
34571;SDS011;20808;48.974;8.452;2022-11-12T08:09:57;7.27;;;5.50;;
34571;SDS011;20808;48.974;8.452;2022-11-12T08:12:24;6.83;;;5.33;;
34571;SDS011;20808;48.974;8.452;2022-11-12T08:14:52;6.77;;;5.60;;
34571;SDS011;20808;48.974;8.452;2022-11-12T08:17:19;5.83;;;5.20;;
34571;SDS011;20808;48.974;8.452;2022-11-12T08:19:45;5.20;;;4.53;;
34571;SDS011;20808;48.974;8.452;2022-11-12T08:22:12;7.60;;;5.80;;
34571;SDS011;20808;48.974;8.452;2022-11-12T08:24:39;5.87;;;5.00;;
34571;SDS011;20808;48.974;8.452;2022-11-12T08:27:06;6.87;;;4.93;;
34571;SDS011;20808;48.974;8.452;2022-11-12T08:29:32;6.07;;;4.90;;
34571;SDS011;20808;48.974;8.452;2022-11-12T08:32:00;6.47;;;5.17;;
34571;SDS011;20808;48.974;8.452;2022-11-12T08:34:27;4.90;;;4.40;;
34571;SDS011;20808;48.974;8.452;2022-11-12T08:36:54;5.37;;;4.77;;
34571;SDS011;20808;48.974;8.452;2022-11-12T08:39:21;5.03;;;4.50;;
34571;SDS011;20808;48.974;8.452;2022-11-12T08:41:48;7.33;;;4.90;;
34571;SDS011;20808;48.974;8.452;2022-11-12T08:44:14;5.70;;;4.70;;
34571;SDS011;20808;48.974;8.452;2022-11-12T08:46:41;6.87;;;4.97;;
34571;SDS011;20808;48.974;8.452;2022-11-12T08:49:09;6.50;;;5.03;;
34571;SDS011;20808;48.974;8.452;2022-11-12T08:51:36;6.50;;;5.07;;
34571;SDS011;20808;48.974;8.452;2022-11-12T08:54:03;5.73;;;5.13;;
34571;SDS011;20808;48.974;8.452;2022-11-12T08:56:30;5.37;;;4.87;;
34571;SDS011;20808;48.974;8.452;2022-11-12T08:58:57;10.30;;;4.67;;
34571;SDS011;20808;48.974;8.452;2022-11-12T09:01:24;5.00;;;4.47;;
34571;SDS011;20808;48.974;8.452;2022-11-12T09:03:51;4.70;;;4.23;;
34571;SDS011;20808;48.974;8.452;2022-11-12T09:06:19;5.47;;;4.50;;
34571;SDS011;20808;48.974;8.452;2022-11-12T09:08:46;5.03;;;4.53;;
34571;SDS011;20808;48.974;8.452;2022-11-12T09:11:13;5.60;;;4.77;;
34571;SDS011;20808;48.974;8.452;2022-11-12T09:13:40;5.00;;;4.50;;
34571;SDS011;20808;48.974;8.452;2022-11-12T09:16:08;6.63;;;5.97;;
34571;SDS011;20808;48.974;8.452;2022-11-12T09:18:34;5.73;;;5.13;;
34571;SDS011;20808;48.974;8.452;2022-11-12T09:21:02;6.13;;;5.53;;
34571;SDS011;20808;48.974;8.452;2022-11-12T09:23:32;4.97;;;4.30;;
34571;SDS011;20808;48.974;8.452;2022-11-12T09:25:59;5.80;;;5.30;;
34571;SDS011;20808;48.974;8.452;2022-11-12T09:28:26;7.30;;;5.10;;
34571;SDS011;20808;48.974;8.452;2022-11-12T09:30:53;4.80;;;4.30;;
34571;SDS011;20808;48.974;8.452;2022-11-12T09:33:21;5.40;;;4.70;;
34571;SDS011;20808;48.974;8.452;2022-11-12T09:35:50;9.53;;;4.97;;
34571;SDS011;20808;48.974;8.452;2022-11-12T09:38:17;4.47;;;4.07;;
34571;SDS011;20808;48.974;8.452;2022-11-12T09:40:57;5.77;;;4.67;;
34571;SDS011;20808;48.974;8.452;2022-11-12T09:43:36;6.07;;;4.80;;
34571;SDS011;20808;48.974;8.452;2022-11-12T09:46:10;5.13;;;4.53;;
34571;SDS011;20808;48.974;8.452;2022-11-12T09:48:46;5.73;;;4.70;;
34571;SDS011;20808;48.974;8.452;2022-11-12T09:51:19;5.83;;;5.10;;
34571;SDS011;20808;48.974;8.452;2022-11-12T09:53:51;6.27;;;5.17;;
34571;SDS011;20808;48.974;8.452;2022-11-12T09:56:22;5.90;;;5.00;;
34571;SDS011;20808;48.974;8.452;2022-11-12T09:58:52;6.20;;;5.20;;
34571;SDS011;20808;48.974;8.452;2022-11-12T10:01:21;26.80;;;11.90;;
34571;SDS011;20808;48.974;8.452;2022-11-12T10:03:58;10.57;;;6.47;;
34571;SDS011;20808;48.974;8.452;2022-11-12T10:06:33;7.50;;;6.20;;
34571;SDS011;20808;48.974;8.452;2022-11-12T10:09:07;10.73;;;6.93;;
34571;SDS011;20808;48.974;8.452;2022-11-12T10:11:46;7.90;;;6.30;;
34571;SDS011;20808;48.974;8.452;2022-11-12T10:14:43;8.40;;;6.70;;
34571;SDS011;20808;48.974;8.452;2022-11-12T10:17:45;7.30;;;6.57;;
34571;SDS011;20808;48.974;8.452;2022-11-12T10:20:16;10.53;;;6.13;;
34571;SDS011;20808;48.974;8.452;2022-11-12T10:22:52;7.70;;;5.70;;
34571;SDS011;20808;48.974;8.452;2022-11-12T10:25:31;10.00;;;7.27;;
34571;SDS011;20808;48.974;8.452;2022-11-12T10:28:03;9.00;;;7.53;;
34571;SDS011;20808;48.974;8.452;2022-11-12T10:30:39;10.23;;;6.90;;
34571;SDS011;20808;48.974;8.452;2022-11-12T10:33:09;12.27;;;7.43;;
34571;SDS011;20808;48.974;8.452;2022-11-12T10:35:38;13.63;;;9.10;;
34571;SDS011;20808;48.974;8.452;2022-11-12T10:38:06;15.70;;;9.40;;
34571;SDS011;20808;48.974;8.452;2022-11-12T10:40:39;12.70;;;8.93;;
34571;SDS011;20808;48.974;8.452;2022-11-12T10:43:20;18.40;;;10.33;;
34571;SDS011;20808;48.974;8.452;2022-11-12T10:45:48;14.43;;;11.27;;
34571;SDS011;20808;48.974;8.452;2022-11-12T10:48:20;14.10;;;10.50;;
34571;SDS011;20808;48.974;8.452;2022-11-12T10:50:49;15.27;;;10.33;;
34571;SDS011;20808;48.974;8.452;2022-11-12T10:53:27;14.87;;;10.97;;
34571;SDS011;20808;48.974;8.452;2022-11-12T10:55:57;13.57;;;10.10;;
34571;SDS011;20808;48.974;8.452;2022-11-12T10:58:27;16.43;;;11.07;;
34571;SDS011;20808;48.974;8.452;2022-11-12T11:00:55;17.70;;;11.60;;
34571;SDS011;20808;48.974;8.452;2022-11-12T11:03:24;16.60;;;12.10;;
34571;SDS011;20808;48.974;8.452;2022-11-12T11:05:54;15.73;;;11.73;;
34571;SDS011;20808;48.974;8.452;2022-11-12T11:08:37;19.90;;;13.87;;
34571;SDS011;20808;48.974;8.452;2022-11-12T11:11:19;16.67;;;12.70;;
34571;SDS011;20808;48.974;8.452;2022-11-12T11:13:51;18.53;;;13.03;;
34571;SDS011;20808;48.974;8.452;2022-11-12T11:16:19;22.43;;;14.90;;
34571;SDS011;20808;48.974;8.452;2022-11-12T11:18:48;18.43;;;13.77;;
34571;SDS011;20808;48.974;8.452;2022-11-12T11:21:22;17.63;;;13.30;;
34571;SDS011;20808;48.974;8.452;2022-11-12T11:23:59;22.07;;;15.07;;
34571;SDS011;20808;48.974;8.452;2022-11-12T11:26:34;23.57;;;15.13;;
34571;SDS011;20808;48.974;8.452;2022-11-12T11:29:14;20.50;;;14.30;;
34571;SDS011;20808;48.974;8.452;2022-11-12T11:31:54;23.50;;;15.97;;
34571;SDS011;20808;48.974;8.452;2022-11-12T11:34:36;22.00;;;14.77;;
34571;SDS011;20808;48.974;8.452;2022-11-12T11:37:14;19.20;;;13.30;;
34571;SDS011;20808;48.974;8.452;2022-11-12T11:39:51;20.17;;;13.80;;
34571;SDS011;20808;48.974;8.452;2022-11-12T11:42:37;18.67;;;13.57;;
34571;SDS011;20808;48.974;8.452;2022-11-12T11:45:16;27.67;;;15.63;;
34571;SDS011;20808;48.974;8.452;2022-11-12T11:47:51;22.40;;;15.50;;
34571;SDS011;20808;48.974;8.452;2022-11-12T11:50:24;23.63;;;15.80;;
34571;SDS011;20808;48.974;8.452;2022-11-12T11:53:09;20.60;;;14.37;;
34571;SDS011;20808;48.974;8.452;2022-11-12T11:55:53;22.40;;;15.10;;
34571;SDS011;20808;48.974;8.452;2022-11-12T11:58:34;21.07;;;14.13;;
34571;SDS011;20808;48.974;8.452;2022-11-12T12:01:14;17.53;;;12.70;;
34571;SDS011;20808;48.974;8.452;2022-11-12T12:06:45;18.23;;;13.70;;
34571;SDS011;20808;48.974;8.452;2022-11-12T12:09:26;18.40;;;13.27;;
34571;SDS011;20808;48.974;8.452;2022-11-12T12:12:01;19.83;;;13.40;;
34571;SDS011;20808;48.974;8.452;2022-11-12T12:14:43;19.00;;;12.97;;
34571;SDS011;20808;48.974;8.452;2022-11-12T12:17:24;19.17;;;13.27;;
34571;SDS011;20808;48.974;8.452;2022-11-12T12:20:02;21.60;;;12.67;;
34571;SDS011;20808;48.974;8.452;2022-11-12T12:22:39;19.50;;;12.80;;
34571;SDS011;20808;48.974;8.452;2022-11-12T12:25:11;17.03;;;12.20;;
34571;SDS011;20808;48.974;8.452;2022-11-12T12:27:45;16.90;;;12.70;;
34571;SDS011;20808;48.974;8.452;2022-11-12T12:30:17;17.87;;;13.37;;
34571;SDS011;20808;48.974;8.452;2022-11-12T12:32:48;17.13;;;12.27;;
34571;SDS011;20808;48.974;8.452;2022-11-12T12:35:21;20.13;;;11.03;;
34571;SDS011;20808;48.974;8.452;2022-11-12T12:37:52;17.10;;;11.13;;
34571;SDS011;20808;48.974;8.452;2022-11-12T12:40:30;22.90;;;14.13;;
34571;SDS011;20808;48.974;8.452;2022-11-12T12:43:00;18.30;;;12.00;;
34571;SDS011;20808;48.974;8.452;2022-11-12T12:45:37;18.00;;;11.60;;
34571;SDS011;20808;48.974;8.452;2022-11-12T12:48:10;18.53;;;11.67;;
34571;SDS011;20808;48.974;8.452;2022-11-12T12:50:40;15.60;;;11.03;;
34571;SDS011;20808;48.974;8.452;2022-11-12T12:53:15;14.80;;;12.00;;
34571;SDS011;20808;48.974;8.452;2022-11-12T12:55:44;15.07;;;11.80;;
34571;SDS011;20808;48.974;8.452;2022-11-12T12:58:21;15.90;;;11.37;;
34571;SDS011;20808;48.974;8.452;2022-11-12T13:00:52;12.97;;;9.60;;
34571;SDS011;20808;48.974;8.452;2022-11-12T13:06:22;13.80;;;10.50;;
34571;SDS011;20808;48.974;8.452;2022-11-12T13:08:53;13.90;;;10.40;;
34571;SDS011;20808;48.974;8.452;2022-11-12T13:14:44;13.73;;;10.50;;
34571;SDS011;20808;48.974;8.452;2022-11-12T13:20:17;18.93;;;12.50;;
34571;SDS011;20808;48.974;8.452;2022-11-12T13:22:58;18.03;;;13.87;;
34571;SDS011;20808;48.974;8.452;2022-11-12T13:25:26;15.57;;;11.17;;
34571;SDS011;20808;48.974;8.452;2022-11-12T13:28:04;15.63;;;11.10;;
34571;SDS011;20808;48.974;8.452;2022-11-12T13:30:58;13.67;;;10.47;;
34571;SDS011;20808;48.974;8.452;2022-11-12T13:33:30;14.40;;;11.13;;
34571;SDS011;20808;48.974;8.452;2022-11-12T13:38:53;18.00;;;12.20;;
34571;SDS011;20808;48.974;8.452;2022-11-12T13:41:35;21.80;;;14.00;;
34571;SDS011;20808;48.974;8.452;2022-11-12T13:44:19;14.73;;;11.10;;
34571;SDS011;20808;48.974;8.452;2022-11-12T13:46:49;19.10;;;12.57;;
34571;SDS011;20808;48.974;8.452;2022-11-12T13:49:17;15.23;;;11.33;;
34571;SDS011;20808;48.974;8.452;2022-11-12T13:51:46;14.93;;;10.70;;
34571;SDS011;20808;48.974;8.452;2022-11-12T13:54:24;13.50;;;10.17;;
34571;SDS011;20808;48.974;8.452;2022-11-12T13:56:52;14.20;;;10.50;;
34571;SDS011;20808;48.974;8.452;2022-11-12T13:59:20;12.80;;;10.23;;
34571;SDS011;20808;48.974;8.452;2022-11-12T14:01:48;11.23;;;9.40;;
34571;SDS011;20808;48.974;8.452;2022-11-12T14:04:17;15.73;;;12.30;;
34571;SDS011;20808;48.974;8.452;2022-11-12T14:06:49;13.07;;;10.57;;
34571;SDS011;20808;48.974;8.452;2022-11-12T14:09:31;13.73;;;10.27;;
34571;SDS011;20808;48.974;8.452;2022-11-12T14:12:10;13.13;;;10.73;;
34571;SDS011;20808;48.974;8.452;2022-11-12T14:14:51;13.90;;;10.83;;
34571;SDS011;20808;48.974;8.452;2022-11-12T14:17:30;12.20;;;10.67;;
34571;SDS011;20808;48.974;8.452;2022-11-12T14:20:17;13.00;;;10.60;;
34571;SDS011;20808;48.974;8.452;2022-11-12T14:22:51;13.43;;;10.30;;
34571;SDS011;20808;48.974;8.452;2022-11-12T14:25:20;11.77;;;9.97;;
34571;SDS011;20808;48.974;8.452;2022-11-12T14:27:49;12.03;;;9.87;;
34571;SDS011;20808;48.974;8.452;2022-11-12T14:30:18;12.73;;;10.17;;
34571;SDS011;20808;48.974;8.452;2022-11-12T14:32:47;13.80;;;10.90;;
34571;SDS011;20808;48.974;8.452;2022-11-12T14:35:17;12.67;;;10.70;;
34571;SDS011;20808;48.974;8.452;2022-11-12T14:37:54;17.33;;;11.97;;
34571;SDS011;20808;48.974;8.452;2022-11-12T14:40:25;11.90;;;9.53;;
34571;SDS011;20808;48.974;8.452;2022-11-12T14:42:53;15.17;;;11.70;;
34571;SDS011;20808;48.974;8.452;2022-11-12T14:45:21;15.90;;;11.10;;
34571;SDS011;20808;48.974;8.452;2022-11-12T14:47:49;14.20;;;11.43;;
34571;SDS011;20808;48.974;8.452;2022-11-12T14:50:19;13.47;;;11.50;;
34571;SDS011;20808;48.974;8.452;2022-11-12T14:52:54;14.93;;;10.80;;
34571;SDS011;20808;48.974;8.452;2022-11-12T14:55:25;15.67;;;11.40;;
34571;SDS011;20808;48.974;8.452;2022-11-12T14:57:55;14.63;;;12.17;;
34571;SDS011;20808;48.974;8.452;2022-11-12T15:00:37;13.40;;;11.13;;
34571;SDS011;20808;48.974;8.452;2022-11-12T15:03:07;16.80;;;12.77;;
34571;SDS011;20808;48.974;8.452;2022-11-12T15:05:52;17.07;;;12.50;;
34571;SDS011;20808;48.974;8.452;2022-11-12T15:08:28;16.10;;;12.70;;